sensor_id;sensor_type;location;lat;lon;timestamp;temperature;humidity
16437;DHT22;8328;52.206;21.006;2023-01-05T00:01:03;8.30;99.90
16437;DHT22;8328;52.206;21.006;2023-01-05T00:03:30;8.30;99.90
16437;DHT22;8328;52.206;21.006;2023-01-05T00:06:02;8.30;99.90
16437;DHT22;8328;52.206;21.006;2023-01-05T00:08:28;9.50;99.90
16437;DHT22;8328;52.206;21.006;2023-01-05T00:10:54;8.30;99.90
16437;DHT22;8328;52.206;21.006;2023-01-05T00:13:38;8.30;99.90
16437;DHT22;8328;52.206;21.006;2023-01-05T00:16:23;8.40;99.90
16437;DHT22;8328;52.206;21.006;2023-01-05T00:19:11;8.40;99.90
16437;DHT22;8328;52.206;21.006;2023-01-05T00:21:56;8.50;99.90
16437;DHT22;8328;52.206;21.006;2023-01-05T00:24:41;8.50;99.90
16437;DHT22;8328;52.206;21.006;2023-01-05T00:27:06;8.50;99.90
16437;DHT22;8328;52.206;21.006;2023-01-05T00:29:32;8.50;99.90
16437;DHT22;8328;52.206;21.006;2023-01-05T00:31:58;8.50;99.90
16437;DHT22;8328;52.206;21.006;2023-01-05T00:34:24;8.50;99.90
16437;DHT22;8328;52.206;21.006;2023-01-05T00:36:49;8.60;99.90
16437;DHT22;8328;52.206;21.006;2023-01-05T00:39:15;8.60;99.90
16437;DHT22;8328;52.206;21.006;2023-01-05T00:41:41;8.70;99.90
16437;DHT22;8328;52.206;21.006;2023-01-05T00:44:07;8.70;99.90
16437;DHT22;8328;52.206;21.006;2023-01-05T00:46:32;8.60;99.90
16437;DHT22;8328;52.206;21.006;2023-01-05T00:48:58;8.70;99.90
16437;DHT22;8328;52.206;21.006;2023-01-05T00:51:24;8.80;99.90
16437;DHT22;8328;52.206;21.006;2023-01-05T00:53:50;8.80;99.90
16437;DHT22;8328;52.206;21.006;2023-01-05T00:56:15;8.80;99.90
16437;DHT22;8328;52.206;21.006;2023-01-05T00:58:41;8.80;99.90
16437;DHT22;8328;52.206;21.006;2023-01-05T01:01:11;8.80;99.90
16437;DHT22;8328;52.206;21.006;2023-01-05T01:03:38;8.90;99.90
16437;DHT22;8328;52.206;21.006;2023-01-05T01:06:04;8.90;99.90
16437;DHT22;8328;52.206;21.006;2023-01-05T01:08:30;8.90;99.90
16437;DHT22;8328;52.206;21.006;2023-01-05T01:10:56;9.00;99.90
16437;DHT22;8328;52.206;21.006;2023-01-05T01:13:24;9.00;99.90
16437;DHT22;8328;52.206;21.006;2023-01-05T01:15:50;8.90;99.90
16437;DHT22;8328;52.206;21.006;2023-01-05T01:18:16;8.60;99.90
16437;DHT22;8328;52.206;21.006;2023-01-05T01:20:41;8.90;99.90
16437;DHT22;8328;52.206;21.006;2023-01-05T01:23:07;8.40;99.90
16437;DHT22;8328;52.206;21.006;2023-01-05T01:25:33;8.90;99.90
16437;DHT22;8328;52.206;21.006;2023-01-05T01:27:59;8.90;99.90
16437;DHT22;8328;52.206;21.006;2023-01-05T01:30:25;8.80;99.90
16437;DHT22;8328;52.206;21.006;2023-01-05T01:32:51;8.70;99.90
16437;DHT22;8328;52.206;21.006;2023-01-05T01:35:17;8.70;99.90
16437;DHT22;8328;52.206;21.006;2023-01-05T01:37:42;8.70;99.90
16437;DHT22;8328;52.206;21.006;2023-01-05T01:40:09;8.70;99.90
16437;DHT22;8328;52.206;21.006;2023-01-05T01:42:35;8.70;99.90
16437;DHT22;8328;52.206;21.006;2023-01-05T01:45:26;8.50;99.90
16437;DHT22;8328;52.206;21.006;2023-01-05T01:47:58;8.60;99.90
16437;DHT22;8328;52.206;21.006;2023-01-05T01:50:32;8.60;99.90
16437;DHT22;8328;52.206;21.006;2023-01-05T01:53:08;8.50;99.90
16437;DHT22;8328;52.206;21.006;2023-01-05T01:55:38;8.50;99.90
16437;DHT22;8328;52.206;21.006;2023-01-05T01:58:07;8.50;99.90
16437;DHT22;8328;52.206;21.006;2023-01-05T02:00:38;8.50;99.90
16437;DHT22;8328;52.206;21.006;2023-01-05T02:03:04;8.60;99.90
16437;DHT22;8328;52.206;21.006;2023-01-05T02:05:32;8.50;99.90
16437;DHT22;8328;52.206;21.006;2023-01-05T02:07:59;8.60;99.90
16437;DHT22;8328;52.206;21.006;2023-01-05T02:10:47;8.60;99.90
16437;DHT22;8328;52.206;21.006;2023-01-05T02:30:09;8.80;99.90
16437;DHT22;8328;52.206;21.006;2023-01-05T02:33:05;8.90;99.90
16437;DHT22;8328;52.206;21.006;2023-01-05T02:38:45;8.90;99.90
16437;DHT22;8328;52.206;21.006;2023-01-05T02:41:44;8.90;99.90
16437;DHT22;8328;52.206;21.006;2023-01-05T02:44:15;8.90;99.90
16437;DHT22;8328;52.206;21.006;2023-01-05T02:46:42;8.80;99.90
16437;DHT22;8328;52.206;21.006;2023-01-05T02:49:08;9.00;99.90
16437;DHT22;8328;52.206;21.006;2023-01-05T02:51:39;9.00;99.90
16437;DHT22;8328;52.206;21.006;2023-01-05T02:54:13;9.10;99.90
16437;DHT22;8328;52.206;21.006;2023-01-05T02:56:55;9.10;99.90
16437;DHT22;8328;52.206;21.006;2023-01-05T02:59:29;9.10;99.90
16437;DHT22;8328;52.206;21.006;2023-01-05T03:02:00;9.10;99.90
16437;DHT22;8328;52.206;21.006;2023-01-05T03:04:47;9.20;99.90
16437;DHT22;8328;52.206;21.006;2023-01-05T03:07:20;9.10;99.90
16437;DHT22;8328;52.206;21.006;2023-01-05T03:09:47;9.20;99.90
16437;DHT22;8328;52.206;21.006;2023-01-05T03:15:24;9.20;99.90
16437;DHT22;8328;52.206;21.006;2023-01-05T03:17:54;9.30;99.90
16437;DHT22;8328;52.206;21.006;2023-01-05T03:20:26;9.30;99.90
16437;DHT22;8328;52.206;21.006;2023-01-05T03:22:54;9.30;99.90
16437;DHT22;8328;52.206;21.006;2023-01-05T03:25:40;9.30;99.90
16437;DHT22;8328;52.206;21.006;2023-01-05T03:28:38;9.20;99.90
16437;DHT22;8328;52.206;21.006;2023-01-05T03:31:41;9.30;99.90
16437;DHT22;8328;52.206;21.006;2023-01-05T03:34:45;9.20;99.90
16437;DHT22;8328;52.206;21.006;2023-01-05T03:37:37;9.10;99.90
16437;DHT22;8328;52.206;21.006;2023-01-05T03:40:07;9.10;99.90
16437;DHT22;8328;52.206;21.006;2023-01-05T03:42:35;9.10;99.90
16437;DHT22;8328;52.206;21.006;2023-01-05T03:45:02;9.00;99.90
16437;DHT22;8328;52.206;21.006;2023-01-05T03:47:29;8.90;99.90
16437;DHT22;8328;52.206;21.006;2023-01-05T03:49:55;8.90;99.90
16437;DHT22;8328;52.206;21.006;2023-01-05T03:52:20;8.90;99.90
16437;DHT22;8328;52.206;21.006;2023-01-05T03:54:46;8.90;99.90
16437;DHT22;8328;52.206;21.006;2023-01-05T03:57:12;8.90;99.90
16437;DHT22;8328;52.206;21.006;2023-01-05T03:59:37;8.90;99.90
16437;DHT22;8328;52.206;21.006;2023-01-05T04:02:03;8.90;99.90
16437;DHT22;8328;52.206;21.006;2023-01-05T04:04:29;8.90;99.90
16437;DHT22;8328;52.206;21.006;2023-01-05T04:06:55;8.80;99.90
16437;DHT22;8328;52.206;21.006;2023-01-05T04:09:20;8.70;99.90
16437;DHT22;8328;52.206;21.006;2023-01-05T04:11:46;8.70;99.90
16437;DHT22;8328;52.206;21.006;2023-01-05T04:14:12;8.60;99.90
16437;DHT22;8328;52.206;21.006;2023-01-05T04:16:37;8.60;99.90
16437;DHT22;8328;52.206;21.006;2023-01-05T04:19:03;8.60;99.90
16437;DHT22;8328;52.206;21.006;2023-01-05T04:21:29;8.50;99.90
16437;DHT22;8328;52.206;21.006;2023-01-05T04:23:55;8.50;99.90
16437;DHT22;8328;52.206;21.006;2023-01-05T04:26:20;8.50;99.90
16437;DHT22;8328;52.206;21.006;2023-01-05T04:28:46;8.50;99.90
16437;DHT22;8328;52.206;21.006;2023-01-05T04:31:12;8.60;99.90
16437;DHT22;8328;52.206;21.006;2023-01-05T04:33:38;8.40;99.90
16437;DHT22;8328;52.206;21.006;2023-01-05T04:36:05;8.40;99.90
16437;DHT22;8328;52.206;21.006;2023-01-05T04:38:31;8.40;99.90
16437;DHT22;8328;52.206;21.006;2023-01-05T04:40:58;8.30;99.90
16437;DHT22;8328;52.206;21.006;2023-01-05T04:43:24;8.30;99.90
16437;DHT22;8328;52.206;21.006;2023-01-05T04:45:50;8.40;99.90
16437;DHT22;8328;52.206;21.006;2023-01-05T04:48:16;8.30;99.90
16437;DHT22;8328;52.206;21.006;2023-01-05T04:50:42;8.30;99.90
16437;DHT22;8328;52.206;21.006;2023-01-05T04:53:08;8.20;99.90
16437;DHT22;8328;52.206;21.006;2023-01-05T04:55:34;8.20;99.90
16437;DHT22;8328;52.206;21.006;2023-01-05T04:58:00;8.20;99.90
16437;DHT22;8328;52.206;21.006;2023-01-05T05:00:25;8.20;99.90
16437;DHT22;8328;52.206;21.006;2023-01-05T05:02:51;8.20;99.90
16437;DHT22;8328;52.206;21.006;2023-01-05T05:05:17;8.20;99.90
16437;DHT22;8328;52.206;21.006;2023-01-05T05:07:43;8.20;99.90
16437;DHT22;8328;52.206;21.006;2023-01-05T05:10:09;8.20;99.90
16437;DHT22;8328;52.206;21.006;2023-01-05T05:12:35;8.30;99.90
16437;DHT22;8328;52.206;21.006;2023-01-05T05:15:00;8.10;99.90
16437;DHT22;8328;52.206;21.006;2023-01-05T05:17:26;8.20;99.90
16437;DHT22;8328;52.206;21.006;2023-01-05T05:19:52;8.20;99.90
16437;DHT22;8328;52.206;21.006;2023-01-05T05:22:18;8.30;99.90
16437;DHT22;8328;52.206;21.006;2023-01-05T05:24:43;8.30;99.90
16437;DHT22;8328;52.206;21.006;2023-01-05T05:27:09;8.30;99.90
16437;DHT22;8328;52.206;21.006;2023-01-05T05:29:35;8.30;99.90
16437;DHT22;8328;52.206;21.006;2023-01-05T05:32:01;8.00;99.90
16437;DHT22;8328;52.206;21.006;2023-01-05T05:34:26;8.30;99.90
16437;DHT22;8328;52.206;21.006;2023-01-05T05:36:52;8.20;99.90
16437;DHT22;8328;52.206;21.006;2023-01-05T05:39:18;8.30;99.90
16437;DHT22;8328;52.206;21.006;2023-01-05T05:41:45;8.30;99.90
16437;DHT22;8328;52.206;21.006;2023-01-05T05:44:10;8.30;99.90
16437;DHT22;8328;52.206;21.006;2023-01-05T05:46:36;8.30;99.90
16437;DHT22;8328;52.206;21.006;2023-01-05T05:49:02;8.30;99.90
16437;DHT22;8328;52.206;21.006;2023-01-05T05:51:29;8.30;99.90
16437;DHT22;8328;52.206;21.006;2023-01-05T05:53:56;8.20;99.90
16437;DHT22;8328;52.206;21.006;2023-01-05T05:56:21;8.20;99.90
16437;DHT22;8328;52.206;21.006;2023-01-05T05:58:47;8.20;99.90
16437;DHT22;8328;52.206;21.006;2023-01-05T06:01:13;8.20;99.90
16437;DHT22;8328;52.206;21.006;2023-01-05T06:03:39;8.20;99.90
16437;DHT22;8328;52.206;21.006;2023-01-05T06:06:05;8.20;99.90
16437;DHT22;8328;52.206;21.006;2023-01-05T06:08:31;8.20;99.90
16437;DHT22;8328;52.206;21.006;2023-01-05T06:10:56;8.50;99.90
16437;DHT22;8328;52.206;21.006;2023-01-05T06:13:23;8.70;99.90
16437;DHT22;8328;52.206;21.006;2023-01-05T06:15:49;8.90;99.90
16437;DHT22;8328;52.206;21.006;2023-01-05T06:18:16;8.90;99.90
16437;DHT22;8328;52.206;21.006;2023-01-05T06:20:41;9.00;99.90
16437;DHT22;8328;52.206;21.006;2023-01-05T06:23:08;9.10;99.90
16437;DHT22;8328;52.206;21.006;2023-01-05T06:25:34;9.10;99.90
16437;DHT22;8328;52.206;21.006;2023-01-05T06:28:00;8.90;99.90
16437;DHT22;8328;52.206;21.006;2023-01-05T06:30:26;9.20;99.90
16437;DHT22;8328;52.206;21.006;2023-01-05T06:32:52;8.90;99.90
16437;DHT22;8328;52.206;21.006;2023-01-05T06:35:18;9.20;99.90
16437;DHT22;8328;52.206;21.006;2023-01-05T06:37:44;10.00;99.90
16437;DHT22;8328;52.206;21.006;2023-01-05T06:40:10;9.30;99.90
16437;DHT22;8328;52.206;21.006;2023-01-05T06:42:37;9.20;99.90
16437;DHT22;8328;52.206;21.006;2023-01-05T06:45:04;9.30;99.90
16437;DHT22;8328;52.206;21.006;2023-01-05T06:47:30;9.10;99.90
16437;DHT22;8328;52.206;21.006;2023-01-05T06:49:56;9.20;99.90
16437;DHT22;8328;52.206;21.006;2023-01-05T06:52:22;9.20;99.90
16437;DHT22;8328;52.206;21.006;2023-01-05T06:54:48;9.20;99.90
16437;DHT22;8328;52.206;21.006;2023-01-05T06:57:14;9.10;99.90
16437;DHT22;8328;52.206;21.006;2023-01-05T06:59:41;9.10;99.90
16437;DHT22;8328;52.206;21.006;2023-01-05T07:02:14;8.90;99.90
16437;DHT22;8328;52.206;21.006;2023-01-05T07:04:40;8.70;99.90
16437;DHT22;8328;52.206;21.006;2023-01-05T07:07:07;8.60;99.90
16437;DHT22;8328;52.206;21.006;2023-01-05T07:09:33;9.60;99.90
16437;DHT22;8328;52.206;21.006;2023-01-05T07:11:59;8.60;99.90
16437;DHT22;8328;52.206;21.006;2023-01-05T07:14:25;8.50;99.90
16437;DHT22;8328;52.206;21.006;2023-01-05T07:16:50;8.50;99.90
16437;DHT22;8328;52.206;21.006;2023-01-05T07:19:16;8.50;99.90
16437;DHT22;8328;52.206;21.006;2023-01-05T07:21:42;8.50;99.90
16437;DHT22;8328;52.206;21.006;2023-01-05T07:24:08;8.50;99.90
16437;DHT22;8328;52.206;21.006;2023-01-05T07:26:34;8.50;99.90
16437;DHT22;8328;52.206;21.006;2023-01-05T07:28:59;8.50;99.90
16437;DHT22;8328;52.206;21.006;2023-01-05T07:31:25;8.40;99.90
16437;DHT22;8328;52.206;21.006;2023-01-05T07:33:51;8.40;99.90
16437;DHT22;8328;52.206;21.006;2023-01-05T07:36:17;8.40;99.90
16437;DHT22;8328;52.206;21.006;2023-01-05T07:38:42;8.40;99.90
16437;DHT22;8328;52.206;21.006;2023-01-05T07:41:08;8.40;99.90
16437;DHT22;8328;52.206;21.006;2023-01-05T07:43:34;8.50;99.90
16437;DHT22;8328;52.206;21.006;2023-01-05T07:46:01;8.50;99.90
16437;DHT22;8328;52.206;21.006;2023-01-05T07:48:28;8.60;99.90
16437;DHT22;8328;52.206;21.006;2023-01-05T07:50:59;8.60;99.90
16437;DHT22;8328;52.206;21.006;2023-01-05T07:53:33;8.70;99.90
16437;DHT22;8328;52.206;21.006;2023-01-05T07:56:02;8.80;99.90
16437;DHT22;8328;52.206;21.006;2023-01-05T07:58:28;8.90;99.90
16437;DHT22;8328;52.206;21.006;2023-01-05T08:00:54;8.90;99.90
16437;DHT22;8328;52.206;21.006;2023-01-05T08:03:21;8.90;99.90
16437;DHT22;8328;52.206;21.006;2023-01-05T08:05:47;8.90;99.90
16437;DHT22;8328;52.206;21.006;2023-01-05T08:08:13;9.00;99.90
16437;DHT22;8328;52.206;21.006;2023-01-05T08:10:40;9.00;99.90
16437;DHT22;8328;52.206;21.006;2023-01-05T08:13:08;9.00;99.90
16437;DHT22;8328;52.206;21.006;2023-01-05T08:15:54;9.00;99.90
16437;DHT22;8328;52.206;21.006;2023-01-05T08:18:21;8.90;99.90
16437;DHT22;8328;52.206;21.006;2023-01-05T08:20:52;8.90;99.90
16437;DHT22;8328;52.206;21.006;2023-01-05T08:25:45;8.90;99.90
16437;DHT22;8328;52.206;21.006;2023-01-05T08:28:11;9.00;99.90
16437;DHT22;8328;52.206;21.006;2023-01-05T08:30:37;9.00;99.90
16437;DHT22;8328;52.206;21.006;2023-01-05T08:33:03;10.90;99.90
16437;DHT22;8328;52.206;21.006;2023-01-05T08:35:30;9.10;99.90
16437;DHT22;8328;52.206;21.006;2023-01-05T08:37:56;9.00;99.90
16437;DHT22;8328;52.206;21.006;2023-01-05T08:40:22;9.00;99.90
16437;DHT22;8328;52.206;21.006;2023-01-05T08:42:50;9.00;99.90
16437;DHT22;8328;52.206;21.006;2023-01-05T08:45:16;9.00;99.90
16437;DHT22;8328;52.206;21.006;2023-01-05T08:47:42;8.90;99.90
16437;DHT22;8328;52.206;21.006;2023-01-05T08:50:10;8.90;99.90
16437;DHT22;8328;52.206;21.006;2023-01-05T08:52:37;8.90;99.90
16437;DHT22;8328;52.206;21.006;2023-01-05T08:55:04;8.90;99.90
16437;DHT22;8328;52.206;21.006;2023-01-05T08:57:30;8.90;99.90
16437;DHT22;8328;52.206;21.006;2023-01-05T08:59:56;8.90;99.90
16437;DHT22;8328;52.206;21.006;2023-01-05T09:02:22;8.90;99.90
16437;DHT22;8328;52.206;21.006;2023-01-05T09:04:47;12.30;99.90
16437;DHT22;8328;52.206;21.006;2023-01-05T09:07:13;8.90;99.90
16437;DHT22;8328;52.206;21.006;2023-01-05T09:09:39;9.00;99.90
16437;DHT22;8328;52.206;21.006;2023-01-05T09:12:05;9.00;99.90
16437;DHT22;8328;52.206;21.006;2023-01-05T09:14:31;8.90;99.90
16437;DHT22;8328;52.206;21.006;2023-01-05T09:16:57;8.80;99.90
16437;DHT22;8328;52.206;21.006;2023-01-05T09:21:49;8.70;99.90
16437;DHT22;8328;52.206;21.006;2023-01-05T09:26:42;8.60;99.90
16437;DHT22;8328;52.206;21.006;2023-01-05T09:29:09;8.70;99.90
16437;DHT22;8328;52.206;21.006;2023-01-05T09:34:01;8.80;99.90
16437;DHT22;8328;52.206;21.006;2023-01-05T09:36:27;8.50;99.90
16437;DHT22;8328;52.206;21.006;2023-01-05T09:38:54;8.90;99.90
16437;DHT22;8328;52.206;21.006;2023-01-05T09:44:01;10.30;99.90
16437;DHT22;8328;52.206;21.006;2023-01-05T09:46:35;9.30;99.90
16437;DHT22;8328;52.206;21.006;2023-01-05T09:49:04;9.50;99.90
16437;DHT22;8328;52.206;21.006;2023-01-05T09:51:32;9.50;99.90
16437;DHT22;8328;52.206;21.006;2023-01-05T09:53:59;9.50;99.90
16437;DHT22;8328;52.206;21.006;2023-01-05T09:56:35;9.50;99.90
16437;DHT22;8328;52.206;21.006;2023-01-05T10:01:51;9.40;99.90
16437;DHT22;8328;52.206;21.006;2023-01-05T10:04:21;9.60;99.90
16437;DHT22;8328;52.206;21.006;2023-01-05T10:07:04;9.70;99.90
16437;DHT22;8328;52.206;21.006;2023-01-05T10:09:34;9.90;99.90
16437;DHT22;8328;52.206;21.006;2023-01-05T10:14:57;10.00;99.90
16437;DHT22;8328;52.206;21.006;2023-01-05T10:17:27;10.00;99.90
16437;DHT22;8328;52.206;21.006;2023-01-05T10:19:55;10.20;99.90
16437;DHT22;8328;52.206;21.006;2023-01-05T10:22:34;10.40;99.90
16437;DHT22;8328;52.206;21.006;2023-01-05T10:25:25;10.50;99.90
16437;DHT22;8328;52.206;21.006;2023-01-05T10:28:12;10.50;99.90
16437;DHT22;8328;52.206;21.006;2023-01-05T10:31:05;10.50;99.90
16437;DHT22;8328;52.206;21.006;2023-01-05T10:39:09;10.90;99.90
16437;DHT22;8328;52.206;21.006;2023-01-05T10:47:12;11.80;99.90
16437;DHT22;8328;52.206;21.006;2023-01-05T10:49:41;12.00;99.90
16437;DHT22;8328;52.206;21.006;2023-01-05T10:52:12;11.80;99.90
16437;DHT22;8328;52.206;21.006;2023-01-05T10:54:50;11.80;99.90
16437;DHT22;8328;52.206;21.006;2023-01-05T11:05:24;10.80;99.90
16437;DHT22;8328;52.206;21.006;2023-01-05T11:07:57;10.30;99.90
16437;DHT22;8328;52.206;21.006;2023-01-05T11:10:46;10.20;99.90
16437;DHT22;8328;52.206;21.006;2023-01-05T11:16:26;9.60;99.90
16437;DHT22;8328;52.206;21.006;2023-01-05T11:18:51;9.50;99.90
16437;DHT22;8328;52.206;21.006;2023-01-05T11:21:20;9.50;99.90
16437;DHT22;8328;52.206;21.006;2023-01-05T11:23:49;9.30;99.90
16437;DHT22;8328;52.206;21.006;2023-01-05T11:26:35;9.30;99.90
16437;DHT22;8328;52.206;21.006;2023-01-05T11:42:19;9.10;99.90
16437;DHT22;8328;52.206;21.006;2023-01-05T11:44:52;9.40;99.90
16437;DHT22;8328;52.206;21.006;2023-01-05T11:47:30;9.60;99.90
16437;DHT22;8328;52.206;21.006;2023-01-05T11:52:27;9.60;99.90
16437;DHT22;8328;52.206;21.006;2023-01-05T11:54:56;9.60;99.90
16437;DHT22;8328;52.206;21.006;2023-01-05T11:57:22;9.70;99.90
16437;DHT22;8328;52.206;21.006;2023-01-05T11:59:48;9.60;99.90
16437;DHT22;8328;52.206;21.006;2023-01-05T12:07:33;9.60;99.90
16437;DHT22;8328;52.206;21.006;2023-01-05T12:10:41;9.50;99.90
16437;DHT22;8328;52.206;21.006;2023-01-05T12:13:32;9.60;99.90
16437;DHT22;8328;52.206;21.006;2023-01-05T12:16:29;9.50;99.90
16437;DHT22;8328;52.206;21.006;2023-01-05T12:21:36;9.40;99.90
16437;DHT22;8328;52.206;21.006;2023-01-05T12:24:28;9.40;99.90
16437;DHT22;8328;52.206;21.006;2023-01-05T12:32:43;9.20;99.90
16437;DHT22;8328;52.206;21.006;2023-01-05T12:35:45;9.30;99.90
16437;DHT22;8328;52.206;21.006;2023-01-05T12:38:35;9.40;99.90
16437;DHT22;8328;52.206;21.006;2023-01-05T12:41:30;9.40;99.90
16437;DHT22;8328;52.206;21.006;2023-01-05T12:49:38;9.20;99.90
16437;DHT22;8328;52.206;21.006;2023-01-05T12:52:51;9.20;99.90
16437;DHT22;8328;52.206;21.006;2023-01-05T12:55:32;9.20;99.90
16437;DHT22;8328;52.206;21.006;2023-01-05T12:58:05;9.20;99.90
16437;DHT22;8328;52.206;21.006;2023-01-05T13:00:36;9.30;99.90
16437;DHT22;8328;52.206;21.006;2023-01-05T13:03:55;9.30;99.90
16437;DHT22;8328;52.206;21.006;2023-01-05T13:08:37;8.90;99.90
16437;DHT22;8328;52.206;21.006;2023-01-05T13:13:52;8.40;99.90
16437;DHT22;8328;52.206;21.006;2023-01-05T13:19:11;8.30;99.90
16437;DHT22;8328;52.206;21.006;2023-01-05T13:21:41;8.20;99.90
16437;DHT22;8328;52.206;21.006;2023-01-05T13:24:12;8.10;99.90
16437;DHT22;8328;52.206;21.006;2023-01-05T13:26:42;8.00;99.90
16437;DHT22;8328;52.206;21.006;2023-01-05T13:29:20;7.90;99.90
16437;DHT22;8328;52.206;21.006;2023-01-05T13:31:55;7.90;99.90
16437;DHT22;8328;52.206;21.006;2023-01-05T13:38:01;7.70;99.90
16437;DHT22;8328;52.206;21.006;2023-01-05T13:45:59;7.40;99.90
16437;DHT22;8328;52.206;21.006;2023-01-05T13:53:52;7.30;99.90
16437;DHT22;8328;52.206;21.006;2023-01-05T13:56:23;6.60;99.90
16437;DHT22;8328;52.206;21.006;2023-01-05T14:01:48;8.20;99.90
16437;DHT22;8328;52.206;21.006;2023-01-05T14:04:25;7.50;99.90
16437;DHT22;8328;52.206;21.006;2023-01-05T14:07:03;7.50;99.90
16437;DHT22;8328;52.206;21.006;2023-01-05T14:09:31;7.50;99.90
16437;DHT22;8328;52.206;21.006;2023-01-05T14:20:45;7.60;99.90
16437;DHT22;8328;52.206;21.006;2023-01-05T14:25:54;7.60;99.90
16437;DHT22;8328;52.206;21.006;2023-01-05T14:33:56;7.60;99.90
16437;DHT22;8328;52.206;21.006;2023-01-05T14:39:40;7.60;99.90
16437;DHT22;8328;52.206;21.006;2023-01-05T14:44:59;7.60;99.90
16437;DHT22;8328;52.206;21.006;2023-01-05T14:47:43;7.60;99.90
16437;DHT22;8328;52.206;21.006;2023-01-05T14:50:34;7.60;99.90
16437;DHT22;8328;52.206;21.006;2023-01-05T14:53:02;7.60;99.90
16437;DHT22;8328;52.206;21.006;2023-01-05T14:55:40;7.60;99.90
16437;DHT22;8328;52.206;21.006;2023-01-05T14:58:46;7.70;99.90
16437;DHT22;8328;52.206;21.006;2023-01-05T15:03:57;7.80;99.90
16437;DHT22;8328;52.206;21.006;2023-01-05T15:09:17;7.90;99.90
16437;DHT22;8328;52.206;21.006;2023-01-05T15:12:26;7.90;99.90
16437;DHT22;8328;52.206;21.006;2023-01-05T15:31:58;7.70;99.90
16437;DHT22;8328;52.206;21.006;2023-01-05T15:34:45;7.60;99.90
16437;DHT22;8328;52.206;21.006;2023-01-05T15:37:34;7.70;99.90
16437;DHT22;8328;52.206;21.006;2023-01-05T15:40:03;7.60;99.90
16437;DHT22;8328;52.206;21.006;2023-01-05T15:42:41;7.90;99.90
16437;DHT22;8328;52.206;21.006;2023-01-05T15:45:33;7.70;99.90
16437;DHT22;8328;52.206;21.006;2023-01-05T15:48:10;7.80;99.90
16437;DHT22;8328;52.206;21.006;2023-01-05T15:50:51;7.70;99.90
16437;DHT22;8328;52.206;21.006;2023-01-05T15:53:26;7.60;99.90
16437;DHT22;8328;52.206;21.006;2023-01-05T15:55:53;7.60;99.90
16437;DHT22;8328;52.206;21.006;2023-01-05T15:58:20;7.50;99.90
16437;DHT22;8328;52.206;21.006;2023-01-05T16:03:28;7.30;99.90
16437;DHT22;8328;52.206;21.006;2023-01-05T16:06:21;7.30;99.90
16437;DHT22;8328;52.206;21.006;2023-01-05T16:08:50;7.20;99.90
16437;DHT22;8328;52.206;21.006;2023-01-05T16:11:31;7.20;99.90
16437;DHT22;8328;52.206;21.006;2023-01-05T16:14:09;7.20;99.90
16437;DHT22;8328;52.206;21.006;2023-01-05T16:16:38;7.10;99.90
16437;DHT22;8328;52.206;21.006;2023-01-05T16:19:30;7.10;99.90
16437;DHT22;8328;52.206;21.006;2023-01-05T16:21:59;7.00;99.90
16437;DHT22;8328;52.206;21.006;2023-01-05T16:24:35;6.90;99.90
16437;DHT22;8328;52.206;21.006;2023-01-05T16:27:05;6.70;99.90
16437;DHT22;8328;52.206;21.006;2023-01-05T16:29:35;6.60;99.90
16437;DHT22;8328;52.206;21.006;2023-01-05T16:32:03;6.40;99.90
16437;DHT22;8328;52.206;21.006;2023-01-05T16:34:30;6.20;99.90
16437;DHT22;8328;52.206;21.006;2023-01-05T16:37:03;6.20;99.90
16437;DHT22;8328;52.206;21.006;2023-01-05T16:39:37;6.20;99.90
16437;DHT22;8328;52.206;21.006;2023-01-05T16:42:16;6.30;99.90
16437;DHT22;8328;52.206;21.006;2023-01-05T16:45:18;6.20;99.90
16437;DHT22;8328;52.206;21.006;2023-01-05T16:47:45;6.20;99.90
16437;DHT22;8328;52.206;21.006;2023-01-05T16:53:10;6.10;99.90
16437;DHT22;8328;52.206;21.006;2023-01-05T16:55:37;6.10;99.90
16437;DHT22;8328;52.206;21.006;2023-01-05T16:58:31;6.00;99.90
16437;DHT22;8328;52.206;21.006;2023-01-05T17:00:50;6.00;99.90
16437;DHT22;8328;52.206;21.006;2023-01-05T17:03:30;5.90;99.90
16437;DHT22;8328;52.206;21.006;2023-01-05T17:05:57;5.90;99.90
16437;DHT22;8328;52.206;21.006;2023-01-05T17:08:25;6.00;99.90
16437;DHT22;8328;52.206;21.006;2023-01-05T17:10:54;6.00;99.90
16437;DHT22;8328;52.206;21.006;2023-01-05T17:13:24;6.10;99.90
16437;DHT22;8328;52.206;21.006;2023-01-05T17:15:51;6.10;99.90
16437;DHT22;8328;52.206;21.006;2023-01-05T17:18:26;6.10;99.90
16437;DHT22;8328;52.206;21.006;2023-01-05T17:20:54;6.10;99.90
16437;DHT22;8328;52.206;21.006;2023-01-05T17:23:29;6.10;99.90
16437;DHT22;8328;52.206;21.006;2023-01-05T17:26:01;6.10;99.90
16437;DHT22;8328;52.206;21.006;2023-01-05T17:28:27;6.20;99.90
16437;DHT22;8328;52.206;21.006;2023-01-05T17:30:53;6.10;99.90
16437;DHT22;8328;52.206;21.006;2023-01-05T17:33:19;6.10;99.90
16437;DHT22;8328;52.206;21.006;2023-01-05T17:35:46;6.10;99.90
16437;DHT22;8328;52.206;21.006;2023-01-05T17:38:13;6.10;99.90
16437;DHT22;8328;52.206;21.006;2023-01-05T17:40:39;6.00;99.90
16437;DHT22;8328;52.206;21.006;2023-01-05T17:43:05;5.90;99.90
16437;DHT22;8328;52.206;21.006;2023-01-05T17:45:32;5.80;99.90
16437;DHT22;8328;52.206;21.006;2023-01-05T17:47:58;5.80;99.90
16437;DHT22;8328;52.206;21.006;2023-01-05T17:50:27;5.70;99.90
16437;DHT22;8328;52.206;21.006;2023-01-05T17:52:59;5.70;99.90
16437;DHT22;8328;52.206;21.006;2023-01-05T17:55:26;5.70;99.90
16437;DHT22;8328;52.206;21.006;2023-01-05T17:57:52;5.70;99.90
16437;DHT22;8328;52.206;21.006;2023-01-05T18:00:21;5.70;99.90
16437;DHT22;8328;52.206;21.006;2023-01-05T18:02:48;5.70;99.90
16437;DHT22;8328;52.206;21.006;2023-01-05T18:05:15;5.80;99.90
16437;DHT22;8328;52.206;21.006;2023-01-05T18:07:41;5.80;99.90
16437;DHT22;8328;52.206;21.006;2023-01-05T18:10:19;5.70;99.90
16437;DHT22;8328;52.206;21.006;2023-01-05T18:12:45;5.80;99.90
16437;DHT22;8328;52.206;21.006;2023-01-05T18:15:12;5.80;99.90
16437;DHT22;8328;52.206;21.006;2023-01-05T18:17:38;5.80;99.90
16437;DHT22;8328;52.206;21.006;2023-01-05T18:20:05;5.90;99.90
16437;DHT22;8328;52.206;21.006;2023-01-05T18:22:31;5.90;99.90
16437;DHT22;8328;52.206;21.006;2023-01-05T18:27:23;5.90;99.90
16437;DHT22;8328;52.206;21.006;2023-01-05T18:29:50;5.90;99.90
16437;DHT22;8328;52.206;21.006;2023-01-05T18:32:16;5.90;99.90
16437;DHT22;8328;52.206;21.006;2023-01-05T18:34:42;5.90;99.90
16437;DHT22;8328;52.206;21.006;2023-01-05T18:37:08;5.90;99.90
16437;DHT22;8328;52.206;21.006;2023-01-05T18:39:34;5.90;99.90
16437;DHT22;8328;52.206;21.006;2023-01-05T18:42:00;5.90;99.90
16437;DHT22;8328;52.206;21.006;2023-01-05T18:51:44;5.60;99.90
16437;DHT22;8328;52.206;21.006;2023-01-05T18:54:11;5.60;99.90
16437;DHT22;8328;52.206;21.006;2023-01-05T18:56:38;5.60;99.90
16437;DHT22;8328;52.206;21.006;2023-01-05T18:59:03;5.60;99.90
16437;DHT22;8328;52.206;21.006;2023-01-05T19:01:29;5.60;99.90
16437;DHT22;8328;52.206;21.006;2023-01-05T19:03:55;5.60;99.90
16437;DHT22;8328;52.206;21.006;2023-01-05T19:06:23;5.60;99.90
16437;DHT22;8328;52.206;21.006;2023-01-05T19:08:50;5.60;99.90
16437;DHT22;8328;52.206;21.006;2023-01-05T19:11:18;5.60;99.90